sensor_id;sensor_type;location;lat;lon;timestamp;pressure;altitude;pressure_sealevel;temperature;humidity
29121;BME280;16191;49.548;8.658;2023-04-16T00:00:55;100481.44;;;8.48;100.00
29121;BME280;16191;49.548;8.658;2023-04-16T00:03:21;100482.38;;;8.46;100.00
29121;BME280;16191;49.548;8.658;2023-04-16T00:05:49;100486.59;;;8.50;100.00
29121;BME280;16191;49.548;8.658;2023-04-16T00:08:16;100481.44;;;8.48;100.00
29121;BME280;16191;49.548;8.658;2023-04-16T00:10:42;100489.94;;;8.55;100.00
29121;BME280;16191;49.548;8.658;2023-04-16T00:13:09;100486.41;;;8.57;100.00
29121;BME280;16191;49.548;8.658;2023-04-16T00:15:35;100487.59;;;8.46;100.00
29121;BME280;16191;49.548;8.658;2023-04-16T00:18:02;100488.34;;;8.49;100.00
29121;BME280;16191;49.548;8.658;2023-04-16T00:20:29;100489.22;;;8.50;100.00
29121;BME280;16191;49.548;8.658;2023-04-16T00:22:55;100488.16;;;8.57;100.00
29121;BME280;16191;49.548;8.658;2023-04-16T00:25:22;100486.28;;;8.62;100.00
29121;BME280;16191;49.548;8.658;2023-04-16T00:27:48;100483.72;;;8.61;100.00
29121;BME280;16191;49.548;8.658;2023-04-16T00:30:15;100485.38;;;8.63;100.00
29121;BME280;16191;49.548;8.658;2023-04-16T00:32:42;100481.13;;;8.61;100.00
29121;BME280;16191;49.548;8.658;2023-04-16T00:35:08;100485.50;;;8.58;100.00
29121;BME280;16191;49.548;8.658;2023-04-16T00:37:35;100484.81;;;8.52;100.00
29121;BME280;16191;49.548;8.658;2023-04-16T00:40:01;100488.41;;;8.48;100.00
29121;BME280;16191;49.548;8.658;2023-04-16T00:42:28;100479.91;;;8.43;100.00
29121;BME280;16191;49.548;8.658;2023-04-16T00:44:54;100486.53;;;8.53;100.00
29121;BME280;16191;49.548;8.658;2023-04-16T00:47:21;100482.50;;;8.43;100.00
29121;BME280;16191;49.548;8.658;2023-04-16T00:49:48;100490.06;;;8.50;100.00
29121;BME280;16191;49.548;8.658;2023-04-16T00:52:15;100490.78;;;8.55;100.00
29121;BME280;16191;49.548;8.658;2023-04-16T00:54:42;100484.00;;;8.50;100.00
29121;BME280;16191;49.548;8.658;2023-04-16T00:57:09;100490.97;;;8.49;100.00
29121;BME280;16191;49.548;8.658;2023-04-16T00:59:36;100495.38;;;8.46;100.00
29121;BME280;16191;49.548;8.658;2023-04-16T01:02:02;100493.50;;;8.51;100.00
29121;BME280;16191;49.548;8.658;2023-04-16T01:04:29;100500.25;;;8.58;100.00
29121;BME280;16191;49.548;8.658;2023-04-16T01:06:56;100496.00;;;8.55;100.00
29121;BME280;16191;49.548;8.658;2023-04-16T01:09:23;100492.47;;;8.58;100.00
29121;BME280;16191;49.548;8.658;2023-04-16T01:11:49;100496.69;;;8.62;100.00
29121;BME280;16191;49.548;8.658;2023-04-16T01:14:16;100498.44;;;8.62;100.00
29121;BME280;16191;49.548;8.658;2023-04-16T01:16:43;100495.13;;;8.55;100.00
29121;BME280;16191;49.548;8.658;2023-04-16T01:19:09;100494.78;;;8.38;100.00
29121;BME280;16191;49.548;8.658;2023-04-16T01:21:36;100499.88;;;8.41;100.00
29121;BME280;16191;49.548;8.658;2023-04-16T01:24:03;100493.16;;;8.34;100.00
29121;BME280;16191;49.548;8.658;2023-04-16T01:26:31;100499.03;;;8.40;100.00
29121;BME280;16191;49.548;8.658;2023-04-16T01:28:58;100497.41;;;8.36;100.00
29121;BME280;16191;49.548;8.658;2023-04-16T01:31:25;100507.53;;;8.45;100.00
29121;BME280;16191;49.548;8.658;2023-04-16T01:34:05;100506.44;;;8.54;100.00
29121;BME280;16191;49.548;8.658;2023-04-16T01:36:33;100509.28;;;8.45;100.00
29121;BME280;16191;49.548;8.658;2023-04-16T01:39:00;100509.19;;;8.48;100.00
29121;BME280;16191;49.548;8.658;2023-04-16T01:41:26;100515.41;;;8.44;100.00
29121;BME280;16191;49.548;8.658;2023-04-16T01:43:53;100515.53;;;8.39;100.00
29121;BME280;16191;49.548;8.658;2023-04-16T01:46:23;100513.00;;;8.36;100.00
29121;BME280;16191;49.548;8.658;2023-04-16T01:48:52;100519.97;;;8.36;100.00
29121;BME280;16191;49.548;8.658;2023-04-16T01:51:20;100522.06;;;8.21;100.00
29121;BME280;16191;49.548;8.658;2023-04-16T01:54:08;100519.34;;;8.24;100.00
29121;BME280;16191;49.548;8.658;2023-04-16T01:56:54;100521.25;;;8.19;100.00
29121;BME280;16191;49.548;8.658;2023-04-16T01:59:41;100531.34;;;8.30;100.00
29121;BME280;16191;49.548;8.658;2023-04-16T02:02:28;100528.63;;;8.36;100.00
29121;BME280;16191;49.548;8.658;2023-04-16T02:05:15;100528.03;;;8.23;100.00
29121;BME280;16191;49.548;8.658;2023-04-16T02:08:02;100530.63;;;8.23;100.00
29121;BME280;16191;49.548;8.658;2023-04-16T02:10:29;100533.09;;;8.30;100.00
29121;BME280;16191;49.548;8.658;2023-04-16T02:12:56;100531.19;;;8.38;100.00
29121;BME280;16191;49.548;8.658;2023-04-16T02:15:22;100529.47;;;8.37;100.00
29121;BME280;16191;49.548;8.658;2023-04-16T02:17:50;100531.19;;;8.38;100.00
29121;BME280;16191;49.548;8.658;2023-04-16T02:20:23;100524.16;;;8.41;100.00
29121;BME280;16191;49.548;8.658;2023-04-16T02:22:53;100529.28;;;8.44;100.00
29121;BME280;16191;49.548;8.658;2023-04-16T02:25:22;100532.88;;;8.39;100.00
29121;BME280;16191;49.548;8.658;2023-04-16T02:27:51;100531.22;;;8.36;100.00
29121;BME280;16191;49.548;8.658;2023-04-16T02:30:36;100526.94;;;8.34;100.00
29121;BME280;16191;49.548;8.658;2023-04-16T02:33:04;100527.72;;;8.37;100.00
29121;BME280;16191;49.548;8.658;2023-04-16T02:35:33;100531.19;;;8.38;100.00
29121;BME280;16191;49.548;8.658;2023-04-16T02:38:01;100526.78;;;8.40;100.00
29121;BME280;16191;49.548;8.658;2023-04-16T02:40:28;100531.00;;;8.44;100.00
29121;BME280;16191;49.548;8.658;2023-04-16T02:42:56;100538.84;;;8.42;100.00
29121;BME280;16191;49.548;8.658;2023-04-16T02:45:23;100541.84;;;8.25;100.00
29121;BME280;16191;49.548;8.658;2023-04-16T02:47:50;100543.63;;;8.23;100.00
29121;BME280;16191;49.548;8.658;2023-04-16T02:50:17;100541.22;;;8.17;100.00
29121;BME280;16191;49.548;8.658;2023-04-16T02:52:44;100547.38;;;8.13;100.00
29121;BME280;16191;49.548;8.658;2023-04-16T02:55:10;100546.50;;;8.14;100.00
29121;BME280;16191;49.548;8.658;2023-04-16T02:57:37;100546.56;;;8.11;100.00
29121;BME280;16191;49.548;8.658;2023-04-16T03:00:04;100543.09;;;8.12;100.00
29121;BME280;16191;49.548;8.658;2023-04-16T03:02:31;100550.53;;;8.24;100.00
29121;BME280;16191;49.548;8.658;2023-04-16T03:04:58;100543.59;;;8.25;100.00
29121;BME280;16191;49.548;8.658;2023-04-16T03:07:25;100545.22;;;8.29;100.00
29121;BME280;16191;49.548;8.658;2023-04-16T03:09:51;100540.88;;;8.30;100.00
29121;BME280;16191;49.548;8.658;2023-04-16T03:12:18;100534.63;;;8.38;100.00
29121;BME280;16191;49.548;8.658;2023-04-16T03:14:44;100543.28;;;8.39;100.00
29121;BME280;16191;49.548;8.658;2023-04-16T03:17:11;100540.63;;;8.40;100.00
29121;BME280;16191;49.548;8.658;2023-04-16T03:19:38;100537.16;;;8.41;100.00
29121;BME280;16191;49.548;8.658;2023-04-16T03:22:04;100545.16;;;8.34;100.00
29121;BME280;16191;49.548;8.658;2023-04-16T03:24:32;100540.81;;;8.34;100.00
29121;BME280;16191;49.548;8.658;2023-04-16T03:26:59;100542.44;;;8.38;100.00
29121;BME280;16191;49.548;8.658;2023-04-16T03:29:27;100539.75;;;8.41;100.00
29121;BME280;16191;49.548;8.658;2023-04-16T03:31:55;100546.63;;;8.44;100.00
29121;BME280;16191;49.548;8.658;2023-04-16T03:34:22;100544.94;;;8.41;100.00
29121;BME280;16191;49.548;8.658;2023-04-16T03:36:49;100551.97;;;8.38;100.00
29121;BME280;16191;49.548;8.658;2023-04-16T03:39:15;100551.84;;;8.42;100.00
29121;BME280;16191;49.548;8.658;2023-04-16T03:41:42;100552.59;;;8.46;100.00
29121;BME280;16191;49.548;8.658;2023-04-16T03:44:09;100556.22;;;8.42;100.00
29121;BME280;16191;49.548;8.658;2023-04-16T03:46:35;100559.47;;;8.48;100.00
29121;BME280;16191;49.548;8.658;2023-04-16T03:49:02;100560.41;;;8.46;100.00
29121;BME280;16191;49.548;8.658;2023-04-16T03:51:29;100556.25;;;8.40;100.00
29121;BME280;16191;49.548;8.658;2023-04-16T03:53:56;100557.44;;;8.25;100.00
29121;BME280;16191;49.548;8.658;2023-04-16T03:56:24;100559.81;;;8.36;100.00
29121;BME280;16191;49.548;8.658;2023-04-16T03:58:51;100559.75;;;8.39;100.00
29121;BME280;16191;49.548;8.658;2023-04-16T04:01:18;100561.38;;;8.43;100.00
29121;BME280;16191;49.548;8.658;2023-04-16T04:03:45;100563.19;;;8.40;100.00
29121;BME280;16191;49.548;8.658;2023-04-16T04:06:13;100560.59;;;8.40;100.00
29121;BME280;16191;49.548;8.658;2023-04-16T04:08:40;100565.78;;;8.40;100.00
29121;BME280;16191;49.548;8.658;2023-04-16T04:11:07;100563.16;;;8.41;100.00
29121;BME280;16191;49.548;8.658;2023-04-16T04:13:34;100567.47;;;8.42;100.00
29121;BME280;16191;49.548;8.658;2023-04-16T04:16:02;100572.66;;;8.42;100.00
29121;BME280;16191;49.548;8.658;2023-04-16T04:18:29;100579.50;;;8.45;100.00
29121;BME280;16191;49.548;8.658;2023-04-16T04:20:55;100572.63;;;8.44;100.00
29121;BME280;16191;49.548;8.658;2023-04-16T04:23:26;100571.94;;;8.37;100.00
29121;BME280;16191;49.548;8.658;2023-04-16T04:25:52;100569.28;;;8.39;100.00
29121;BME280;16191;49.548;8.658;2023-04-16T04:28:19;100567.63;;;8.36;100.00
29121;BME280;16191;49.548;8.658;2023-04-16T04:30:46;100572.75;;;8.39;100.00
29121;BME280;16191;49.548;8.658;2023-04-16T04:33:13;100577.97;;;8.38;100.00
29121;BME280;16191;49.548;8.658;2023-04-16T04:35:40;100584.81;;;8.42;100.00
29121;BME280;16191;49.548;8.658;2023-04-16T04:38:07;100577.97;;;8.38;100.00
29121;BME280;16191;49.548;8.658;2023-04-16T04:40:34;100576.19;;;8.40;100.00
29121;BME280;16191;49.548;8.658;2023-04-16T04:43:02;100579.97;;;8.26;100.00
29121;BME280;16191;49.548;8.658;2023-04-16T04:45:28;100584.00;;;8.40;100.00
29121;BME280;16191;49.548;8.658;2023-04-16T04:47:57;100584.94;;;8.37;100.00
29121;BME280;16191;49.548;8.658;2023-04-16T04:50:24;100589.16;;;8.41;100.00
29121;BME280;16191;49.548;8.658;2023-04-16T04:52:50;100593.47;;;8.42;100.00
29121;BME280;16191;49.548;8.658;2023-04-16T04:55:17;100597.66;;;8.46;100.00
29121;BME280;16191;49.548;8.658;2023-04-16T04:57:44;100596.91;;;8.43;100.00
29121;BME280;16191;49.548;8.658;2023-04-16T05:00:11;100595.19;;;8.43;100.00
29121;BME280;16191;49.548;8.658;2023-04-16T05:02:43;100604.56;;;8.47;100.00
29121;BME280;16191;49.548;8.658;2023-04-16T05:05:10;100602.13;;;8.43;100.00
29121;BME280;16191;49.548;8.658;2023-04-16T05:07:36;100606.47;;;8.42;100.00
29121;BME280;16191;49.548;8.658;2023-04-16T05:10:03;100606.50;;;8.41;100.00
29121;BME280;16191;49.548;8.658;2023-04-16T05:12:30;100603.09;;;8.39;100.00
29121;BME280;16191;49.548;8.658;2023-04-16T05:14:56;100615.50;;;8.26;100.00
29121;BME280;16191;49.548;8.658;2023-04-16T05:17:23;100613.13;;;8.18;100.00
29121;BME280;16191;49.548;8.658;2023-04-16T05:19:50;100613.13;;;8.18;100.00
29121;BME280;16191;49.548;8.658;2023-04-16T05:22:17;100615.81;;;8.14;100.00
29121;BME280;16191;49.548;8.658;2023-04-16T05:24:44;100613.16;;;8.17;100.00
29121;BME280;16191;49.548;8.658;2023-04-16T05:27:11;100614.75;;;8.22;100.00
29121;BME280;16191;49.548;8.658;2023-04-16T05:29:37;100625.81;;;8.29;100.00
29121;BME280;16191;49.548;8.658;2023-04-16T05:32:04;100617.09;;;8.32;100.00
29121;BME280;16191;49.548;8.658;2023-04-16T05:34:31;100622.22;;;8.36;100.00
29121;BME280;16191;49.548;8.658;2023-04-16T05:36:57;100617.72;;;8.43;100.00
29121;BME280;16191;49.548;8.658;2023-04-16T05:39:24;100621.22;;;8.42;100.00
29121;BME280;16191;49.548;8.658;2023-04-16T05:41:51;100623.97;;;8.36;100.00
29121;BME280;16191;49.548;8.658;2023-04-16T05:44:17;100624.03;;;8.33;100.00
29121;BME280;16191;49.548;8.658;2023-04-16T05:46:44;100616.16;;;8.36;100.00
29121;BME280;16191;49.548;8.658;2023-04-16T05:49:10;100628.50;;;8.26;100.00
29121;BME280;16191;49.548;8.658;2023-04-16T05:51:37;100623.19;;;8.31;100.00
29121;BME280;16191;49.548;8.658;2023-04-16T05:54:04;100631.00;;;8.31;100.00
29121;BME280;16191;49.548;8.658;2023-04-16T05:56:30;100636.06;;;8.37;100.00
29121;BME280;16191;49.548;8.658;2023-04-16T05:58:57;100637.75;;;8.39;100.00
29121;BME280;16191;49.548;8.658;2023-04-16T06:01:24;100641.16;;;8.41;100.00
29121;BME280;16191;49.548;8.658;2023-04-16T06:03:50;100641.91;;;8.45;100.00
29121;BME280;16191;49.548;8.658;2023-04-16T06:06:17;100644.66;;;8.40;100.00
29121;BME280;16191;49.548;8.658;2023-04-16T06:08:44;100647.03;;;8.48;100.00
29121;BME280;16191;49.548;8.658;2023-04-16T06:11:10;100647.06;;;8.46;100.00
29121;BME280;16191;49.548;8.658;2023-04-16T06:13:37;100653.31;;;8.41;100.00
29121;BME280;16191;49.548;8.658;2023-04-16T06:16:04;100653.94;;;8.49;100.00
29121;BME280;16191;49.548;8.658;2023-04-16T06:18:31;100659.34;;;8.43;100.00
29121;BME280;16191;49.548;8.658;2023-04-16T06:20:58;100651.59;;;8.40;100.00
29121;BME280;16191;49.548;8.658;2023-04-16T06:23:24;100657.59;;;8.43;100.00
29121;BME280;16191;49.548;8.658;2023-04-16T06:25:51;100656.50;;;8.50;100.00
29121;BME280;16191;49.548;8.658;2023-04-16T06:28:18;100647.91;;;8.48;100.00
29121;BME280;16191;49.548;8.658;2023-04-16T06:30:45;100660.28;;;8.39;100.00
29121;BME280;16191;49.548;8.658;2023-04-16T06:33:12;100661.13;;;8.41;100.00
29121;BME280;16191;49.548;8.658;2023-04-16T06:35:38;100660.91;;;8.48;100.00
29121;BME280;16191;49.548;8.658;2023-04-16T06:38:05;100659.03;;;8.53;100.00
29121;BME280;16191;49.548;8.658;2023-04-16T06:40:32;100661.16;;;8.39;100.00
29121;BME280;16191;49.548;8.658;2023-04-16T06:42:58;100655.72;;;8.47;100.00
29121;BME280;16191;49.548;8.658;2023-04-16T06:45:25;100661.75;;;8.49;100.00
29121;BME280;16191;49.548;8.658;2023-04-16T06:47:52;100672.03;;;8.53;100.00
29121;BME280;16191;49.548;8.658;2023-04-16T06:50:18;100668.69;;;8.48;100.00
29121;BME280;16191;49.548;8.658;2023-04-16T06:52:45;100671.44;;;8.44;100.00
29121;BME280;16191;49.548;8.658;2023-04-16T06:55:11;100676.47;;;8.50;100.00
29121;BME280;16191;49.548;8.658;2023-04-16T06:57:38;100674.72;;;8.50;100.00
29121;BME280;16191;49.548;8.658;2023-04-16T07:00:06;100668.03;;;8.42;100.00
29121;BME280;16191;49.548;8.658;2023-04-16T07:02:33;100676.53;;;8.47;100.00
29121;BME280;16191;49.548;8.658;2023-04-16T07:05:00;100667.88;;;8.46;100.00
29121;BME280;16191;49.548;8.658;2023-04-16T07:07:27;100675.47;;;8.55;100.00
29121;BME280;16191;49.548;8.658;2023-04-16T07:09:53;100675.31;;;8.62;100.00
29121;BME280;16191;49.548;8.658;2023-04-16T07:12:20;100677.91;;;8.62;100.00
29121;BME280;16191;49.548;8.658;2023-04-16T07:14:48;100675.34;;;8.60;100.00
29121;BME280;16191;49.548;8.658;2023-04-16T07:17:14;100676.16;;;8.62;100.00
29121;BME280;16191;49.548;8.658;2023-04-16T07:19:41;100671.50;;;8.41;100.00
29121;BME280;16191;49.548;8.658;2023-04-16T07:22:08;100670.38;;;8.51;100.00
29121;BME280;16191;49.548;8.658;2023-04-16T07:24:34;100667.78;;;8.51;100.00
29121;BME280;16191;49.548;8.658;2023-04-16T07:27:01;100663.31;;;8.56;100.00
29121;BME280;16191;49.548;8.658;2023-04-16T07:29:27;100664.34;;;8.49;100.00
29121;BME280;16191;49.548;8.658;2023-04-16T07:31:54;100672.78;;;8.58;100.00
29121;BME280;16191;49.548;8.658;2023-04-16T07:34:21;100673.59;;;8.61;100.00
29121;BME280;16191;49.548;8.658;2023-04-16T07:36:47;100672.97;;;8.51;100.00
29121;BME280;16191;49.548;8.658;2023-04-16T07:39:14;100674.47;;;8.61;100.00
29121;BME280;16191;49.548;8.658;2023-04-16T07:41:40;100676.69;;;8.75;100.00
29121;BME280;16191;49.548;8.658;2023-04-16T07:44:08;100681.66;;;8.84;100.00
29121;BME280;16191;49.548;8.658;2023-04-16T07:46:34;100679.09;;;8.82;100.00
29121;BME280;16191;49.548;8.658;2023-04-16T07:49:12;100686.34;;;8.70;100.00
29121;BME280;16191;49.548;8.658;2023-04-16T07:51:38;100687.81;;;8.81;100.00
29121;BME280;16191;49.548;8.658;2023-04-16T07:54:05;100688.69;;;8.80;100.00
29121;BME280;16191;49.548;8.658;2023-04-16T07:56:31;100690.91;;;8.94;100.00
29121;BME280;16191;49.548;8.658;2023-04-16T07:58:58;100690.38;;;8.83;100.00
29121;BME280;16191;49.548;8.658;2023-04-16T08:01:44;100691.13;;;8.86;100.00
29121;BME280;16191;49.548;8.658;2023-04-16T08:04:10;100692.66;;;8.93;100.00
29121;BME280;16191;49.548;8.658;2023-04-16T08:06:37;100701.44;;;8.89;100.00
29121;BME280;16191;49.548;8.658;2023-04-16T08:09:04;100693.25;;;9.05;100.00
29121;BME280;16191;49.548;8.658;2023-04-16T08:11:31;100698.59;;;8.99;100.00
29121;BME280;16191;49.548;8.658;2023-04-16T08:13:57;100704.03;;;8.89;100.00
29121;BME280;16191;49.548;8.658;2023-04-16T08:16:24;100703.19;;;8.89;100.00
29121;BME280;16191;49.548;8.658;2023-04-16T08:18:50;100703.38;;;8.83;100.00
29121;BME280;16191;49.548;8.658;2023-04-16T08:21:17;100710.41;;;8.79;100.00
29121;BME280;16191;49.548;8.658;2023-04-16T08:23:44;100719.03;;;8.81;100.00
29121;BME280;16191;49.548;8.658;2023-04-16T08:26:10;100715.69;;;8.76;100.00
29121;BME280;16191;49.548;8.658;2023-04-16T08:28:37;100722.75;;;8.71;100.00
29121;BME280;16191;49.548;8.658;2023-04-16T08:31:03;100721.03;;;8.70;100.00
29121;BME280;16191;49.548;8.658;2023-04-16T08:33:30;100723.72;;;8.67;100.00
29121;BME280;16191;49.548;8.658;2023-04-16T08:35:57;100730.59;;;8.70;100.00
29121;BME280;16191;49.548;8.658;2023-04-16T08:38:24;100729.88;;;8.65;100.00
29121;BME280;16191;49.548;8.658;2023-04-16T08:40:52;100730.72;;;8.65;100.00
29121;BME280;16191;49.548;8.658;2023-04-16T08:43:21;100738.47;;;8.67;100.00
29121;BME280;16191;49.548;8.658;2023-04-16T08:45:49;100744.34;;;8.75;100.00
29121;BME280;16191;49.548;8.658;2023-04-16T08:48:17;100742.63;;;8.74;100.00
29121;BME280;16191;49.548;8.658;2023-04-16T08:50:48;100752.00;;;8.81;100.00
29121;BME280;16191;49.548;8.658;2023-04-16T08:53:21;100749.50;;;8.76;100.00
29121;BME280;16191;49.548;8.658;2023-04-16T08:55:57;100753.50;;;8.89;100.00
29121;BME280;16191;49.548;8.658;2023-04-16T08:58:28;100758.88;;;8.83;100.00
29121;BME280;16191;49.548;8.658;2023-04-16T09:00:55;100763.03;;;8.89;100.00
29121;BME280;16191;49.548;8.658;2023-04-16T09:03:21;100758.97;;;8.79;100.00
29121;BME280;16191;49.548;8.658;2023-04-16T09:05:48;100765.09;;;8.78;100.00
29121;BME280;16191;49.548;8.658;2023-04-16T09:08:16;100772.72;;;8.85;100.00
29121;BME280;16191;49.548;8.658;2023-04-16T09:10:42;100764.94;;;8.84;100.00
29121;BME280;16191;49.548;8.658;2023-04-16T09:13:09;100775.41;;;8.81;100.00
29121;BME280;16191;49.548;8.658;2023-04-16T09:15:37;100773.78;;;8.77;100.00
29121;BME280;16191;49.548;8.658;2023-04-16T09:18:04;100777.06;;;8.85;100.00
29121;BME280;16191;49.548;8.658;2023-04-16T09:20:31;100772.81;;;8.81;100.00
29121;BME280;16191;49.548;8.658;2023-04-16T09:22:57;100777.38;;;8.71;100.00
29121;BME280;16191;49.548;8.658;2023-04-16T09:25:24;100785.00;;;8.79;100.00
29121;BME280;16191;49.548;8.658;2023-04-16T09:27:51;100785.72;;;8.85;100.00
29121;BME280;16191;49.548;8.658;2023-04-16T09:32:47;100793.53;;;8.85;100.00
29121;BME280;16191;49.548;8.658;2023-04-16T09:35:14;100784.16;;;8.78;100.00
29121;BME280;16191;49.548;8.658;2023-04-16T09:37:41;100785.97;;;8.75;100.00
29121;BME280;16191;49.548;8.658;2023-04-16T09:40:08;100794.41;;;8.84;100.00
29121;BME280;16191;49.548;8.658;2023-04-16T09:42:35;100799.69;;;8.81;100.00
29121;BME280;16191;49.548;8.658;2023-04-16T09:45:02;100796.09;;;8.87;100.00
29121;BME280;16191;49.548;8.658;2023-04-16T09:47:43;100801.59;;;8.75;100.00
29121;BME280;16191;49.548;8.658;2023-04-16T09:50:17;100804.28;;;8.70;100.00
29121;BME280;16191;49.548;8.658;2023-04-16T09:52:48;100805.91;;;8.76;100.00
29121;BME280;16191;49.548;8.658;2023-04-16T09:55:15;100805.19;;;8.69;100.00
29121;BME280;16191;49.548;8.658;2023-04-16T09:57:42;100801.63;;;8.73;100.00
29121;BME280;16191;49.548;8.658;2023-04-16T10:00:09;100809.25;;;8.81;100.00
29121;BME280;16191;49.548;8.658;2023-04-16T10:02:39;100808.44;;;8.79;100.00
29121;BME280;16191;49.548;8.658;2023-04-16T10:05:08;100800.72;;;8.74;100.00
29121;BME280;16191;49.548;8.658;2023-04-16T10:07:35;100811.56;;;8.91;100.00
29121;BME280;16191;49.548;8.658;2023-04-16T10:10:03;100809.19;;;8.84;100.00
29121;BME280;16191;49.548;8.658;2023-04-16T10:12:30;100810.59;;;8.96;100.00
29121;BME280;16191;49.548;8.658;2023-04-16T10:14:58;100808.97;;;8.91;100.00
29121;BME280;16191;49.548;8.658;2023-04-16T10:17:25;100814.94;;;8.95;100.00
29121;BME280;16191;49.548;8.658;2023-04-16T10:19:53;100817.56;;;8.95;100.00
29121;BME280;16191;49.548;8.658;2023-04-16T10:22:20;100821.78;;;8.99;100.00
29121;BME280;16191;49.548;8.658;2023-04-16T10:24:47;100820.72;;;9.08;100.00
29121;BME280;16191;49.548;8.658;2023-04-16T10:27:14;100821.47;;;9.11;100.00
29121;BME280;16191;49.548;8.658;2023-04-16T10:29:42;100812.25;;;9.00;100.00
29121;BME280;16191;49.548;8.658;2023-04-16T10:32:09;100821.78;;;8.99;100.00
29121;BME280;16191;49.548;8.658;2023-04-16T10:34:37;100828.81;;;8.96;100.00
29121;BME280;16191;49.548;8.658;2023-04-16T10:37:04;100821.88;;;8.96;100.00
29121;BME280;16191;49.548;8.658;2023-04-16T10:39:34;100826.91;;;9.04;100.00
29121;BME280;16191;49.548;8.658;2023-04-16T10:42:10;100823.22;;;9.11;100.00
29121;BME280;16191;49.548;8.658;2023-04-16T10:44:39;100829.25;;;9.13;100.00
29121;BME280;16191;49.548;8.658;2023-04-16T10:47:11;100827.53;;;9.12;100.00
29121;BME280;16191;49.548;8.658;2023-04-16T10:49:39;100826.38;;;9.23;100.00
29121;BME280;16191;49.548;8.658;2023-04-16T10:52:13;100817.78;;;9.20;100.00
29121;BME280;16191;49.548;8.658;2023-04-16T10:54:42;100819.63;;;9.16;100.00
29121;BME280;16191;49.548;8.658;2023-04-16T10:57:14;100816.16;;;9.16;100.00
29121;BME280;16191;49.548;8.658;2023-04-16T10:59:42;100821.31;;;9.17;100.00
29121;BME280;16191;49.548;8.658;2023-04-16T11:02:17;100819.44;;;9.24;100.00
29121;BME280;16191;49.548;8.658;2023-04-16T11:04:45;100819.44;;;9.24;100.00
29121;BME280;16191;49.548;8.658;2023-04-16T11:07:21;100823.69;;;9.26;100.00
29121;BME280;16191;49.548;8.658;2023-04-16T11:14:57;100823.28;;;9.42;100.00
29121;BME280;16191;49.548;8.658;2023-04-16T11:17:28;100819.81;;;9.41;100.00
29121;BME280;16191;49.548;8.658;2023-04-16T11:19:55;100824.03;;;9.47;100.00
29121;BME280;16191;49.548;8.658;2023-04-16T11:22:21;100818.59;;;9.54;100.00
29121;BME280;16191;49.548;8.658;2023-04-16T11:24:55;100821.94;;;9.59;100.00
29121;BME280;16191;49.548;8.658;2023-04-16T11:27:23;100818.41;;;9.60;100.00
29121;BME280;16191;49.548;8.658;2023-04-16T11:30:00;100821.38;;;9.48;100.00
29121;BME280;16191;49.548;8.658;2023-04-16T11:32:30;100817.56;;;9.60;100.00
29121;BME280;16191;49.548;8.658;2023-04-16T11:34:58;100820.16;;;9.60;100.00
29121;BME280;16191;49.548;8.658;2023-04-16T11:37:33;100820.06;;;9.65;100.00
29121;BME280;16191;49.548;8.658;2023-04-16T11:40:01;100810.44;;;9.67;100.00
29121;BME280;16191;49.548;8.658;2023-04-16T11:42:30;100815.66;;;9.67;100.00
29121;BME280;16191;49.548;8.658;2023-04-16T11:44:57;100817.41;;;9.66;100.00
29121;BME280;16191;49.548;8.658;2023-04-16T11:47:26;100817.00;;;9.80;100.00
29121;BME280;16191;49.548;8.658;2023-04-16T11:49:53;100812.53;;;9.85;100.00
29121;BME280;16191;49.548;8.658;2023-04-16T11:52:30;100810.47;;;9.65;100.00
29121;BME280;16191;49.548;8.658;2023-04-16T11:54:58;100811.88;;;9.77;100.00
29121;BME280;16191;49.548;8.658;2023-04-16T11:57:29;100817.38;;;9.97;100.00
29121;BME280;16191;49.548;8.658;2023-04-16T11:59:57;100817.03;;;10.09;100.00
29121;BME280;16191;49.548;8.658;2023-04-16T12:02:41;100821.88;;;10.21;100.00
29121;BME280;16191;49.548;8.658;2023-04-16T12:07:54;100816.41;;;10.30;100.00
29121;BME280;16191;49.548;8.658;2023-04-16T12:10:21;100813.00;;;10.28;100.00
29121;BME280;16191;49.548;8.658;2023-04-16T12:12:48;100815.69;;;10.25;100.00
29121;BME280;16191;49.548;8.658;2023-04-16T12:15:15;100814.56;;;10.34;100.00
29121;BME280;16191;49.548;8.658;2023-04-16T12:17:41;100812.84;;;10.33;100.00
29121;BME280;16191;49.548;8.658;2023-04-16T12:20:10;100813.56;;;10.38;100.00
29121;BME280;16191;49.548;8.658;2023-04-16T12:22:45;100811.97;;;10.34;100.00
29121;BME280;16191;49.548;8.658;2023-04-16T12:25:13;100807.81;;;10.27;100.00
29121;BME280;16191;49.548;8.658;2023-04-16T12:27:49;100813.94;;;10.26;100.00
29121;BME280;16191;49.548;8.658;2023-04-16T12:30:21;100809.13;;;10.40;100.00
29121;BME280;16191;49.548;8.658;2023-04-16T12:32:50;100812.34;;;10.20;100.00
29121;BME280;16191;49.548;8.658;2023-04-16T12:35:31;100812.34;;;10.20;100.00
29121;BME280;16191;49.548;8.658;2023-04-16T12:37:58;100816.44;;;10.29;100.00
29121;BME280;16191;49.548;8.658;2023-04-16T12:40:25;100814.75;;;10.28;100.00
29121;BME280;16191;49.548;8.658;2023-04-16T12:42:52;100819.09;;;10.27;100.00
29121;BME280;16191;49.548;8.658;2023-04-16T12:45:18;100816.06;;;10.41;100.00
29121;BME280;16191;49.548;8.658;2023-04-16T12:47:45;100815.97;;;10.44;100.00
29121;BME280;16191;49.548;8.658;2023-04-16T12:50:12;100817.25;;;10.31;100.00
29121;BME280;16191;49.548;8.658;2023-04-16T12:52:38;100813.19;;;10.50;100.00
29121;BME280;16191;49.548;8.658;2023-04-16T12:55:05;100818.78;;;10.38;100.00
29121;BME280;16191;49.548;8.658;2023-04-16T12:57:32;100815.97;;;10.44;100.00
29121;BME280;16191;49.548;8.658;2023-04-16T12:59:58;100823.28;;;10.33;100.00
29121;BME280;16191;49.548;8.658;2023-04-16T13:02:25;100821.03;;;10.21;100.00
29121;BME280;16191;49.548;8.658;2023-04-16T13:04:52;100815.47;;;10.33;100.00